Time;durP1;ratioP1;P1;durP2;ratioP2;P2;SDS_P1;SDS_P2;PMS_P1;PMS_P2;Temp;Humidity;BMP_temperature;BMP_pressure;BME280_temperature;BME280_humidity;BME280_pressure;Samples;Min_cycle;Max_cycle;Signal;HPM_P1;HPM_P2
2023/07/29 00:01:33;;;;;;;2.23;1.90;;;25.10;68.00;;;;;;4997858;28;21353;-83
2023/07/29 00:04:02;;;;;;;2.00;1.70;;;25.10;68.10;;;;;;4995776;28;20460;-83
2023/07/29 00:06:30;;;;;;;1.93;1.83;;;25.10;68.10;;;;;;4988758;28;20464;-83
2023/07/29 00:08:58;;;;;;;2.13;1.93;;;25.10;68.10;;;;;;4994879;28;20467;-84
2023/07/29 00:11:26;;;;;;;2.00;1.80;;;25.10;68.10;;;;;;4993473;28;21227;-84
2023/07/29 00:13:55;;;;;;;1.87;1.77;;;25.10;68.10;;;;;;4995654;28;20456;-83
2023/07/29 00:16:24;;;;;;;3.03;1.90;;;25.10;68.10;;;;;;4994697;28;20477;-84
2023/07/29 00:18:52;;;;;;;2.20;2.00;;;25.10;68.10;;;;;;4997031;28;20959;-83
2023/07/29 00:21:21;;;;;;;2.20;1.90;;;25.10;68.10;;;;;;4985199;28;20494;-84
2023/07/29 00:23:49;;;;;;;1.80;1.70;;;25.10;68.10;;;;;;4997331;28;20465;-85
2023/07/29 00:26:17;;;;;;;2.67;2.00;;;25.10;68.10;;;;;;4995232;28;20483;-84
2023/07/29 00:28:45;;;;;;;2.00;1.83;;;25.10;68.20;;;;;;4989412;28;20460;-84
2023/07/29 00:31:13;;;;;;;4.07;1.97;;;25.10;68.10;;;;;;4987128;28;20484;-81
2023/07/29 00:33:43;;;;;;;2.00;1.90;;;25.10;68.20;;;;;;4993760;28;21000;-84
2023/07/29 00:36:11;;;;;;;1.83;1.73;;;25.10;68.20;;;;;;4998847;28;20491;-84
2023/07/29 00:38:40;;;;;;;2.10;2.00;;;25.10;68.20;;;;;;4973566;28;20490;-84
2023/07/29 00:41:13;;;;;;;3.00;1.90;;;25.10;68.20;;;;;;4996060;28;20857;-84
2023/07/29 00:43:42;;;;;;;1.93;1.80;;;25.10;68.20;;;;;;4992910;28;20536;-84
2023/07/29 00:46:12;;;;;;;2.43;2.23;;;25.10;68.20;;;;;;4991032;28;20469;-83
2023/07/29 00:48:41;;;;;;;4.33;2.23;;;25.10;68.20;;;;;;4994668;28;20465;-84
2023/07/29 00:51:11;;;;;;;2.63;2.10;;;25.10;68.30;;;;;;4997464;28;20510;-84
2023/07/29 00:53:39;;;;;;;1.70;1.60;;;25.10;68.30;;;;;;4996392;28;20459;-84
2023/07/29 00:56:08;;;;;;;2.13;1.93;;;25.10;68.30;;;;;;4995839;28;20466;-84
2023/07/29 00:58:36;;;;;;;1.60;1.47;;;25.10;68.20;;;;;;4993280;28;20997;-84
2023/07/29 01:01:04;;;;;;;1.90;1.80;;;25.10;68.30;;;;;;4977727;28;20462;-82
2023/07/29 01:03:32;;;;;;;2.17;2.07;;;25.10;68.30;;;;;;4997860;28;20468;-81
2023/07/29 01:17:34;;;;;;;1.83;1.60;;;25.00;68.30;;;;;;5335430;23;22269;-86
2023/07/29 01:20:07;;;;;;;1.80;1.63;;;25.00;68.30;;;;;;4946379;29;20489;-85
2023/07/29 01:22:36;;;;;;;1.90;1.73;;;25.10;68.30;;;;;;4947685;28;20469;-86
2023/07/29 01:25:07;;;;;;;1.83;1.73;;;25.00;68.30;;;;;;4940607;29;20481;-85
2023/07/29 01:27:35;;;;;;;1.63;1.53;;;25.00;68.30;;;;;;4942104;29;20507;-89
2023/07/29 01:30:05;;;;;;;2.87;2.67;;;25.00;68.30;;;;;;4951375;29;20450;-85
2023/07/29 01:32:40;;;;;;;1.50;1.40;;;25.00;68.30;;;;;;4945637;29;20478;-85
2023/07/29 01:35:19;;;;;;;2.23;2.10;;;25.00;68.30;;;;;;4960988;28;20515;-85
2023/07/29 01:37:52;;;;;;;2.10;1.90;;;25.00;68.30;;;;;;4966562;28;20455;-87
2023/07/29 01:40:24;;;;;;;2.63;2.13;;;25.00;68.20;;;;;;4965055;28;20524;-88
2023/07/29 01:42:52;;;;;;;2.07;1.90;;;25.00;68.30;;;;;;4950653;28;20468;-87
2023/07/29 01:45:24;;;;;;;1.60;1.50;;;25.00;68.30;;;;;;4967149;28;20464;-88
2023/07/29 01:47:53;;;;;;;2.20;1.63;;;25.00;68.30;;;;;;4966330;28;20853;-87
2023/07/29 01:50:22;;;;;;;2.10;1.90;;;25.00;68.30;;;;;;4964332;28;20504;-88
2023/07/29 01:52:51;;;;;;;1.90;1.80;;;25.00;68.20;;;;;;4965725;28;20458;-87
2023/07/29 01:55:19;;;;;;;1.80;1.70;;;25.00;68.30;;;;;;4966540;28;20472;-87
2023/07/29 01:57:51;;;;;;;1.67;1.57;;;25.00;68.20;;;;;;4932705;28;20997;-89
2023/07/29 02:00:20;;;;;;;2.23;2.07;;;25.00;68.30;;;;;;4938741;28;20472;-87
2023/07/29 02:02:48;;;;;;;2.20;2.10;;;25.00;68.30;;;;;;4967581;28;20998;-88
2023/07/29 02:05:17;;;;;;;2.10;2.00;;;25.00;68.30;;;;;;4949159;28;20479;-88
2023/07/29 02:07:45;;;;;;;1.83;1.70;;;25.00;68.20;;;;;;4932371;28;20556;-88
2023/07/29 02:10:15;;;;;;;1.70;1.53;;;25.00;68.30;;;;;;4936480;28;20474;-88
2023/07/29 02:12:44;;;;;;;2.07;1.87;;;25.00;68.30;;;;;;4950259;28;21057;-87
2023/07/29 02:15:15;;;;;;;1.47;1.37;;;25.00;68.30;;;;;;4946699;28;20925;-87
2023/07/29 02:17:44;;;;;;;1.57;1.47;;;25.00;68.20;;;;;;4967879;28;20503;-87
2023/07/29 02:20:12;;;;;;;1.50;1.40;;;25.00;68.20;;;;;;4962443;28;20464;-88
2023/07/29 02:22:41;;;;;;;1.70;1.60;;;25.00;68.20;;;;;;4970366;28;21057;-87
2023/07/29 02:25:10;;;;;;;2.00;1.80;;;25.00;68.20;;;;;;4947211;28;20469;-89
2023/07/29 02:27:38;;;;;;;1.90;1.80;;;25.00;68.20;;;;;;4964057;28;20476;-87
2023/07/29 02:30:09;;;;;;;1.80;1.70;;;25.00;68.20;;;;;;4966492;28;20463;-87
2023/07/29 02:32:39;;;;;;;1.67;1.57;;;25.00;68.20;;;;;;4966856;28;20475;-88
2023/07/29 02:35:08;;;;;;;1.67;1.57;;;25.00;68.20;;;;;;4952831;28;20589;-88
2023/07/29 02:37:38;;;;;;;3.07;2.00;;;25.00;68.20;;;;;;4948399;28;20476;-88
2023/07/29 02:40:08;;;;;;;1.97;1.77;;;25.00;68.20;;;;;;4975389;28;20464;-87
2023/07/29 02:42:36;;;;;;;2.33;1.97;;;25.00;68.20;;;;;;4966352;28;20464;-87
2023/07/29 02:45:09;;;;;;;1.93;1.83;;;25.00;68.20;;;;;;4965068;28;20515;-88
2023/07/29 02:47:39;;;;;;;1.53;1.43;;;25.00;68.20;;;;;;4954181;28;20463;-87
2023/07/29 02:50:08;;;;;;;1.87;1.70;;;25.00;68.20;;;;;;4967288;28;21026;-88
2023/07/29 02:52:36;;;;;;;2.17;2.00;;;25.00;68.20;;;;;;4967824;28;20876;-88
2023/07/29 02:55:05;;;;;;;2.10;1.70;;;25.00;68.20;;;;;;4948547;28;20528;-88
2023/07/29 02:57:34;;;;;;;1.70;1.60;;;25.00;68.20;;;;;;4948237;28;20458;-88
2023/07/29 03:00:03;;;;;;;1.67;1.40;;;25.00;68.20;;;;;;4970823;28;20473;-89
2023/07/29 03:02:32;;;;;;;2.20;1.80;;;25.00;68.20;;;;;;4964316;28;20520;-90
2023/07/29 03:05:03;;;;;;;1.93;1.67;;;25.00;68.20;;;;;;4965369;28;20468;-87
2023/07/29 03:07:31;;;;;;;2.37;1.73;;;25.00;68.20;;;;;;4957580;28;20483;-88
2023/07/29 03:10:00;;;;;;;2.33;2.20;;;25.00;68.20;;;;;;4965889;28;20480;-88
2023/07/29 03:12:28;;;;;;;1.77;1.67;;;25.00;68.20;;;;;;4967049;28;20476;-87
2023/07/29 03:14:57;;;;;;;2.40;1.80;;;25.00;68.20;;;;;;4967213;28;20541;-88
2023/07/29 03:17:25;;;;;;;2.63;1.93;;;24.90;68.20;;;;;;4963395;28;21000;-87
2023/07/29 03:19:54;;;;;;;1.60;1.50;;;25.00;68.20;;;;;;4920691;29;20472;-88
2023/07/29 03:22:24;;;;;;;1.50;1.40;;;25.00;68.20;;;;;;4944541;28;20465;-88
2023/07/29 03:24:52;;;;;;;2.00;1.80;;;24.90;68.20;;;;;;4966393;28;20548;-88
2023/07/29 03:27:21;;;;;;;1.77;1.67;;;25.00;68.20;;;;;;4964775;28;20478;-87
2023/07/29 03:29:49;;;;;;;2.57;2.37;;;24.90;68.20;;;;;;4953900;28;20462;-88
2023/07/29 03:32:17;;;;;;;1.73;1.63;;;24.90;68.20;;;;;;4949781;28;20481;-88
2023/07/29 03:34:46;;;;;;;3.77;2.33;;;24.90;68.20;;;;;;4949342;29;20472;-89
2023/07/29 03:37:15;;;;;;;1.80;1.70;;;24.90;68.20;;;;;;4966743;28;20475;-87
2023/07/29 03:39:45;;;;;;;1.80;1.70;;;24.90;68.20;;;;;;4948356;28;20869;-88
2023/07/29 03:42:14;;;;;;;2.30;2.10;;;24.90;68.20;;;;;;4965131;28;20467;-87
2023/07/29 03:44:42;;;;;;;1.70;1.60;;;24.90;68.20;;;;;;4945566;28;20502;-88
2023/07/29 03:47:10;;;;;;;2.00;1.40;;;24.90;68.20;;;;;;4944676;29;20533;-87
2023/07/29 03:49:41;;;;;;;1.80;1.70;;;24.90;68.20;;;;;;4944513;29;20469;-87
2023/07/29 03:52:10;;;;;;;2.37;2.00;;;24.90;68.20;;;;;;4959402;28;20541;-88
2023/07/29 03:54:39;;;;;;;2.13;2.03;;;24.90;68.20;;;;;;4951797;28;20987;-87
2023/07/29 03:57:09;;;;;;;1.67;1.57;;;24.90;68.20;;;;;;4958526;28;20482;-87
2023/07/29 03:59:37;;;;;;;1.80;1.70;;;24.90;68.20;;;;;;4947171;29;20490;-88
2023/07/29 04:02:06;;;;;;;2.20;1.80;;;24.90;68.20;;;;;;4962715;28;20830;-89
2023/07/29 04:04:35;;;;;;;1.70;1.60;;;24.90;68.20;;;;;;4947249;29;20461;-88
2023/07/29 04:07:03;;;;;;;1.80;1.70;;;24.90;68.20;;;;;;4965005;28;20474;-88
2023/07/29 04:09:32;;;;;;;1.87;1.77;;;24.90;68.20;;;;;;4957692;28;20535;-89
2023/07/29 04:12:00;;;;;;;2.03;1.90;;;24.90;68.20;;;;;;4947080;29;20477;-87
2023/07/29 04:14:30;;;;;;;2.20;2.10;;;24.90;68.20;;;;;;4936510;28;20982;-88
2023/07/29 04:16:59;;;;;;;1.60;1.50;;;24.90;68.10;;;;;;4948589;29;20498;-87
2023/07/29 04:19:27;;;;;;;1.97;1.87;;;24.90;68.20;;;;;;4963149;28;20469;-87
2023/07/29 04:21:56;;;;;;;2.23;1.90;;;24.90;68.20;;;;;;4947264;29;20462;-89
2023/07/29 04:24:24;;;;;;;1.90;1.67;;;24.90;68.20;;;;;;4952828;28;20545;-89
2023/07/29 04:26:54;;;;;;;1.90;1.80;;;24.90;68.20;;;;;;4969417;28;20516;-87
2023/07/29 04:29:22;;;;;;;1.93;1.83;;;24.90;68.10;;;;;;4966547;28;20590;-88
2023/07/29 04:31:52;;;;;;;2.20;2.10;;;24.90;68.10;;;;;;4971570;28;20843;-88
2023/07/29 04:34:21;;;;;;;1.90;1.80;;;24.90;68.10;;;;;;4953448;29;20469;-88
2023/07/29 04:36:50;;;;;;;2.17;2.07;;;24.90;68.10;;;;;;4951870;29;20468;-87
2023/07/29 04:39:18;;;;;;;2.20;2.10;;;24.90;68.10;;;;;;4952170;29;20519;-87
2023/07/29 04:41:47;;;;;;;2.00;1.90;;;24.90;68.10;;;;;;4961099;28;20554;-88
2023/07/29 04:44:16;;;;;;;2.40;2.20;;;24.90;68.10;;;;;;4965785;28;20909;-87
2023/07/29 04:46:45;;;;;;;1.70;1.60;;;24.90;68.20;;;;;;4945233;29;20989;-88
2023/07/29 04:49:15;;;;;;;2.17;2.07;;;24.90;68.10;;;;;;4943575;28;20506;-88
2023/07/29 04:51:44;;;;;;;1.70;1.60;;;24.90;68.10;;;;;;4965850;28;20468;-89
2023/07/29 04:54:12;;;;;;;1.50;1.40;;;24.90;68.10;;;;;;4960213;28;20502;-88
2023/07/29 04:56:41;;;;;;;1.67;1.57;;;24.90;68.10;;;;;;4945973;29;20472;-88
2023/07/29 04:59:09;;;;;;;1.83;1.73;;;24.90;68.10;;;;;;4960492;28;20474;-87
2023/07/29 05:01:38;;;;;;;1.90;1.80;;;24.90;68.10;;;;;;4947846;28;20464;-88
2023/07/29 05:04:06;;;;;;;1.77;1.33;;;24.90;68.10;;;;;;4947799;28;20952;-87
2023/07/29 05:06:36;;;;;;;1.70;1.60;;;24.90;68.10;;;;;;4946335;29;20483;-88
2023/07/29 05:09:15;;;;;;;1.80;1.70;;;24.90;68.10;;;;;;4932076;28;20506;-88
2023/07/29 05:11:45;;;;;;;1.90;1.80;;;24.90;68.10;;;;;;4959402;28;20484;-89
2023/07/29 05:14:14;;;;;;;2.03;1.93;;;24.90;68.10;;;;;;4948259;29;20474;-88
2023/07/29 05:16:43;;;;;;;1.70;1.60;;;24.90;68.10;;;;;;4944428;28;20500;-87
2023/07/29 05:19:12;;;;;;;1.73;1.63;;;24.90;68.10;;;;;;4948665;28;20478;-89
2023/07/29 05:21:41;;;;;;;2.10;1.90;;;24.90;68.10;;;;;;4968956;28;20616;-87
2023/07/29 05:24:10;;;;;;;2.03;1.83;;;25.00;68.10;;;;;;4950851;28;20881;-88
2023/07/29 05:26:39;;;;;;;2.10;2.00;;;25.00;68.00;;;;;;4952891;28;20469;-87
2023/07/29 05:29:07;;;;;;;1.97;1.87;;;25.00;68.00;;;;;;4946054;28;20550;-87
2023/07/29 05:31:36;;;;;;;1.70;1.60;;;25.00;68.00;;;;;;4968024;28;20870;-88
2023/07/29 05:34:04;;;;;;;2.10;2.00;;;25.00;67.90;;;;;;4957811;28;20472;-89
2023/07/29 05:36:34;;;;;;;2.73;2.53;;;25.00;67.90;;;;;;4954340;28;20471;-88
2023/07/29 05:39:05;;;;;;;2.30;2.10;;;25.00;67.90;;;;;;4952023;28;20496;-88
2023/07/29 05:41:33;;;;;;;1.90;1.80;;;25.00;68.10;;;;;;4946168;28;20479;-88
2023/07/29 05:44:02;;;;;;;2.80;2.23;;;25.00;67.90;;;;;;4952531;28;20760;-87
2023/07/29 05:46:30;;;;;;;1.93;1.83;;;25.00;67.90;;;;;;4971235;28;20520;-88
2023/07/29 05:48:59;;;;;;;2.17;2.07;;;25.00;68.10;;;;;;4951592;28;20455;-91
2023/07/29 05:51:28;;;;;;;1.90;1.80;;;25.00;68.10;;;;;;4952791;28;21027;-87
2023/07/29 05:53:57;;;;;;;2.10;1.90;;;25.00;68.10;;;;;;4944870;28;20490;-87
2023/07/29 05:56:27;;;;;;;2.17;1.83;;;25.00;68.30;;;;;;4955284;28;20475;-88
2023/07/29 05:58:55;;;;;;;1.60;1.50;;;25.00;68.30;;;;;;4951467;28;20850;-88
2023/07/29 06:01:24;;;;;;;1.87;1.77;;;25.00;68.10;;;;;;4947995;28;20460;-87
2023/07/29 06:03:52;;;;;;;2.57;2.37;;;25.00;68.00;;;;;;4962355;28;20471;-87
2023/07/29 06:06:23;;;;;;;1.53;1.43;;;25.00;67.90;;;;;;4952431;28;20457;-87
2023/07/29 06:08:51;;;;;;;1.77;1.60;;;25.00;68.00;;;;;;4946166;28;20469;-88
2023/07/29 06:11:20;;;;;;;2.10;2.00;;;25.00;68.00;;;;;;4950262;28;20464;-88
2023/07/29 06:13:49;;;;;;;2.03;1.93;;;25.00;68.10;;;;;;4964184;28;20513;-87
2023/07/29 06:16:18;;;;;;;1.90;1.80;;;25.00;68.30;;;;;;4962155;28;20519;-88
2023/07/29 06:18:47;;;;;;;1.70;1.57;;;25.00;68.00;;;;;;4949622;28;20470;-89
2023/07/29 06:21:17;;;;;;;1.53;1.43;;;25.00;68.40;;;;;;4970280;28;20460;-88
2023/07/29 06:23:45;;;;;;;2.63;1.70;;;25.00;68.30;;;;;;4966759;28;20493;-88
2023/07/29 06:26:14;;;;;;;1.90;1.80;;;25.00;68.40;;;;;;4965197;28;20480;-88
2023/07/29 06:28:42;;;;;;;1.77;1.67;;;25.10;68.00;;;;;;4971122;28;20968;-87
2023/07/29 06:31:12;;;;;;;1.73;1.63;;;25.00;68.10;;;;;;4964310;28;20471;-88
2023/07/29 06:33:40;;;;;;;1.80;1.70;;;25.10;68.00;;;;;;4951561;28;20472;-88
2023/07/29 06:36:09;;;;;;;2.33;1.80;;;25.10;67.90;;;;;;4964398;28;20837;-87
2023/07/29 06:38:38;;;;;;;2.20;2.10;;;25.10;67.80;;;;;;4969742;28;20491;-87
2023/07/29 06:41:07;;;;;;;2.03;1.93;;;25.10;68.00;;;;;;4954627;28;20470;-87
2023/07/29 06:43:35;;;;;;;1.80;1.70;;;25.10;67.90;;;;;;4953072;28;20468;-87
2023/07/29 06:46:04;;;;;;;2.30;2.10;;;25.10;67.80;;;;;;4970746;28;21335;-88
2023/07/29 06:48:34;;;;;;;1.70;1.60;;;25.10;67.90;;;;;;4951600;28;20826;-89
2023/07/29 06:51:03;;;;;;;2.07;1.97;;;25.10;68.10;;;;;;4925148;28;20469;-88
2023/07/29 06:53:31;;;;;;;1.53;1.43;;;25.10;68.10;;;;;;4970211;28;20471;-87
2023/07/29 06:56:02;;;;;;;1.93;1.80;;;25.10;68.20;;;;;;4966113;28;20479;-88
2023/07/29 06:58:30;;;;;;;1.60;1.50;;;25.10;68.20;;;;;;4973349;28;20522;-89
2023/07/29 07:00:59;;;;;;;1.70;1.60;;;25.10;68.10;;;;;;4971577;28;20469;-88
2023/07/29 07:03:27;;;;;;;2.00;1.90;;;25.20;68.00;;;;;;4967445;28;20454;-87
2023/07/29 07:05:57;;;;;;;2.57;2.37;;;25.20;68.10;;;;;;4965678;28;20469;-87
2023/07/29 07:08:26;;;;;;;1.87;1.77;;;25.20;68.10;;;;;;4956385;28;20456;-87
2023/07/29 07:10:55;;;;;;;1.67;1.57;;;25.20;68.10;;;;;;4970442;28;20462;-88
2023/07/29 07:13:23;;;;;;;2.17;1.97;;;25.20;68.10;;;;;;4970560;28;20471;-89
2023/07/29 07:15:54;;;;;;;1.70;1.60;;;25.20;68.00;;;;;;4968496;28;21713;-87
2023/07/29 07:18:23;;;;;;;2.10;1.90;;;25.20;67.90;;;;;;4941261;28;20507;-87
2023/07/29 07:20:52;;;;;;;2.40;2.00;;;25.20;67.90;;;;;;4953779;28;20535;-88
2023/07/29 07:23:22;;;;;;;1.73;1.63;;;25.20;67.70;;;;;;4971458;28;20470;-88
2023/07/29 07:25:50;;;;;;;1.80;1.70;;;25.20;67.90;;;;;;4970111;28;20472;-88
2023/07/29 07:28:19;;;;;;;2.80;1.83;;;25.20;68.10;;;;;;4969587;28;20454;-87
2023/07/29 07:30:48;;;;;;;3.07;1.73;;;25.20;67.90;;;;;;4969816;28;21035;-87
2023/07/29 07:33:16;;;;;;;1.90;1.77;;;25.20;67.90;;;;;;4969322;28;20470;-88
2023/07/29 07:35:45;;;;;;;2.87;2.07;;;25.20;67.90;;;;;;4953204;28;20511;-88
2023/07/29 07:38:13;;;;;;;2.00;1.90;;;25.20;68.00;;;;;;4971352;28;20488;-88
2023/07/29 07:40:42;;;;;;;1.73;1.60;;;25.30;67.70;;;;;;4967766;28;20944;-89
2023/07/29 07:43:11;;;;;;;1.83;1.73;;;25.30;67.60;;;;;;4965694;28;20500;-88
2023/07/29 07:45:39;;;;;;;2.93;1.70;;;25.30;67.60;;;;;;4947430;28;20561;-91
2023/07/29 07:48:10;;;;;;;1.90;1.80;;;25.30;67.50;;;;;;4968470;28;20476;-87
2023/07/29 07:50:38;;;;;;;1.33;1.27;;;25.30;67.40;;;;;;4968679;28;20478;-87
2023/07/29 07:53:07;;;;;;;1.97;1.87;;;25.30;67.30;;;;;;4932402;28;20922;-88
2023/07/29 07:55:35;;;;;;;1.50;1.40;;;25.30;67.00;;;;;;4970216;28;20510;-88
2023/07/29 07:58:05;;;;;;;2.30;1.80;;;25.30;67.10;;;;;;4969416;28;20476;-90
2023/07/29 08:00:34;;;;;;;1.47;1.37;;;25.30;67.30;;;;;;4952870;28;21292;-88
2023/07/29 08:03:03;;;;;;;3.20;1.90;;;25.40;67.10;;;;;;4972248;28;20552;-88
2023/07/29 08:05:32;;;;;;;2.20;2.00;;;25.30;67.30;;;;;;4969857;28;20520;-90
2023/07/29 08:08:00;;;;;;;2.10;1.90;;;25.30;67.40;;;;;;4972007;28;20476;-87
2023/07/29 08:10:44;;;;;;;;;;;;;;;;;;;;;
2023/07/29 08:13:14;;;;;;;1.90;1.70;;;25.40;67.20;;;;;;4969326;28;20480;-88
2023/07/29 08:15:42;;;;;;;2.43;1.67;;;25.40;67.40;;;;;;4950000;28;21051;-88
2023/07/29 08:18:11;;;;;;;2.50;1.60;;;25.40;67.20;;;;;;4973800;28;20575;-87
2023/07/29 08:20:39;;;;;;;1.60;1.50;;;25.40;67.10;;;;;;4957029;28;20493;-88
2023/07/29 08:23:07;;;;;;;2.20;1.90;;;25.40;67.40;;;;;;4972886;28;20492;-89
2023/07/29 08:25:35;;;;;;;2.10;1.90;;;25.40;67.50;;;;;;4975119;28;20509;-89
2023/07/29 08:28:05;;;;;;;1.67;1.57;;;25.40;67.20;;;;;;4960096;28;20552;-89
2023/07/29 08:30:35;;;;;;;2.00;1.90;;;25.40;67.50;;;;;;4970800;28;20548;-90
2023/07/29 08:33:03;;;;;;;1.93;1.83;;;25.40;67.50;;;;;;4974636;28;20466;-89
2023/07/29 08:35:31;;;;;;;1.70;1.60;;;25.40;67.60;;;;;;4956466;28;20470;-91
2023/07/29 08:38:00;;;;;;;2.23;2.03;;;25.40;67.60;;;;;;4975200;28;20499;-88
2023/07/29 08:40:31;;;;;;;1.70;1.60;;;25.50;67.50;;;;;;4955881;28;20454;-88
2023/07/29 08:43:04;;;;;;;1.73;1.63;;;25.50;67.50;;;;;;4955857;28;20502;-90
2023/07/29 08:45:37;;;;;;;2.30;2.03;;;25.50;67.50;;;;;;4970990;28;21367;-88
2023/07/29 08:48:09;;;;;;;2.83;2.63;;;25.40;67.60;;;;;;4969741;28;20482;-89
2023/07/29 08:50:38;;;;;;;2.50;2.27;;;25.40;68.20;;;;;;4951999;28;20466;-89
2023/07/29 08:53:07;;;;;;;1.83;1.73;;;25.40;68.20;;;;;;4971380;28;20490;-88
2023/07/29 08:55:36;;;;;;;2.20;2.00;;;25.40;68.00;;;;;;4970401;28;20490;-90
2023/07/29 08:58:05;;;;;;;3.33;2.30;;;25.40;68.10;;;;;;4953783;28;21263;-90
2023/07/29 09:00:35;;;;;;;4.70;2.77;;;25.40;68.50;;;;;;4969519;28;20461;-89
2023/07/29 09:03:06;;;;;;;5.93;3.20;;;25.40;68.20;;;;;;4970534;28;21069;-87
2023/07/29 09:05:35;;;;;;;6.03;2.70;;;25.40;68.90;;;;;;4954167;28;20584;-91
2023/07/29 09:08:05;;;;;;;3.40;2.60;;;25.40;68.60;;;;;;4972639;28;20445;-88
2023/07/29 09:10:36;;;;;;;5.00;3.27;;;25.40;68.40;;;;;;4956358;28;20509;-87
2023/07/29 09:13:05;;;;;;;8.00;3.23;;;25.40;68.50;;;;;;4971065;28;20446;-86
2023/07/29 09:15:36;;;;;;;8.87;3.70;;;25.40;68.60;;;;;;4971745;28;20533;-86
2023/07/29 09:18:11;;;;;;;14.37;4.70;;;25.40;68.80;;;;;;4970438;28;20498;-87
2023/07/29 09:20:39;;;;;;;4.67;3.77;;;25.40;68.90;;;;;;4970292;28;20555;-87
2023/07/29 09:23:10;;;;;;;4.40;3.77;;;25.40;68.80;;;;;;4954193;28;20568;-89
2023/07/29 09:25:40;;;;;;;12.90;3.77;;;25.40;68.60;;;;;;4955775;28;20440;-87
2023/07/29 09:28:10;;;;;;;7.20;4.27;;;25.40;68.40;;;;;;4970871;28;20964;-88
2023/07/29 09:30:42;;;;;;;10.00;3.90;;;25.40;68.40;;;;;;4971007;28;20456;-88
2023/07/29 09:33:11;;;;;;;8.87;3.57;;;25.40;68.30;;;;;;4970641;28;20569;-87
2023/07/29 09:35:39;;;;;;;8.30;4.03;;;25.40;68.30;;;;;;4969015;28;20480;-88
2023/07/29 09:38:08;;;;;;;10.97;4.63;;;25.40;68.10;;;;;;4938720;28;20520;-88
2023/07/29 09:40:37;;;;;;;6.47;3.47;;;25.40;68.10;;;;;;4953890;28;20516;-89
2023/07/29 09:43:06;;;;;;;6.20;3.40;;;25.40;68.00;;;;;;4971443;28;20476;-89
2023/07/29 09:45:37;;;;;;;7.67;3.50;;;25.40;67.80;;;;;;4966998;28;20608;-89
2023/07/29 09:48:09;;;;;;;10.10;3.80;;;25.40;68.00;;;;;;4973158;28;20453;-89
2023/07/29 09:50:38;;;;;;;8.33;4.13;;;25.40;68.20;;;;;;4947907;28;20477;-88
2023/07/29 09:53:08;;;;;;;12.33;4.60;;;25.40;68.20;;;;;;4938297;28;20458;-88
2023/07/29 09:55:37;;;;;;;18.43;5.70;;;25.40;69.20;;;;;;4954617;28;21167;-88
2023/07/29 09:58:08;;;;;;;19.63;5.63;;;25.50;70.10;;;;;;4968078;28;20516;-87
2023/07/29 10:00:38;;;;;;;11.27;5.33;;;25.50;69.90;;;;;;4970310;28;20464;-88
2023/07/29 10:03:08;;;;;;;14.43;5.47;;;25.60;69.50;;;;;;4970113;28;20532;-90
2023/07/29 10:05:38;;;;;;;18.50;6.13;;;25.60;69.30;;;;;;4971484;28;20550;-88
2023/07/29 10:08:07;;;;;;;12.17;4.90;;;25.60;69.30;;;;;;4967681;28;20457;-87
2023/07/29 10:10:36;;;;;;;10.27;4.83;;;25.60;69.10;;;;;;4949461;28;20557;-87
2023/07/29 10:13:05;;;;;;;13.60;5.53;;;25.60;69.10;;;;;;4972649;28;20495;-89
2023/07/29 10:15:34;;;;;;;12.57;5.00;;;25.60;69.10;;;;;;4974779;28;20473;-88
2023/07/29 10:18:03;;;;;;;15.83;5.03;;;25.60;69.00;;;;;;4974588;28;21085;-88
2023/07/29 10:20:35;;;;;;;11.63;5.40;;;25.60;68.90;;;;;;4975087;28;20460;-89
2023/07/29 10:23:08;;;;;;;11.90;4.80;;;25.60;68.80;;;;;;4973548;28;20461;-90
2023/07/29 10:25:41;;;;;;;14.10;5.27;;;25.60;68.80;;;;;;4952701;28;20466;-90
2023/07/29 10:28:13;;;;;;;11.47;4.60;;;25.60;69.00;;;;;;4955804;28;21435;-88
2023/07/29 10:30:42;;;;;;;11.10;5.00;;;25.60;68.90;;;;;;4957591;28;20529;-88
2023/07/29 10:33:11;;;;;;;7.53;4.50;;;25.60;69.30;;;;;;4973178;28;20511;-87
2023/07/29 10:35:41;;;;;;;13.10;5.60;;;25.60;69.10;;;;;;4951952;28;20486;-85
2023/07/29 10:38:10;;;;;;;13.23;5.13;;;25.70;69.50;;;;;;4973270;28;20918;-86
2023/07/29 10:40:46;;;;;;;10.47;4.77;;;25.70;69.60;;;;;;4972088;28;20496;-84
2023/07/29 10:43:20;;;;;;;8.97;4.10;;;25.70;69.90;;;;;;4974151;28;20466;-86
2023/07/29 10:45:48;;;;;;;7.43;4.27;;;25.60;70.20;;;;;;4968954;28;20458;-85
2023/07/29 10:48:41;;;;;;;8.70;4.80;;;25.60;70.50;;;;;;4960919;28;20576;-84
2023/07/29 10:51:29;;;;;;;7.40;4.00;;;25.60;71.00;;;;;;4974705;28;20445;-84
2023/07/29 10:53:59;;;;;;;8.10;4.63;;;25.50;71.30;;;;;;4969859;28;20561;-84
2023/07/29 10:56:32;;;;;;;7.40;3.47;;;25.50;71.40;;;;;;4971512;28;20477;-85
2023/07/29 10:59:03;;;;;;;3.83;3.23;;;25.50;71.40;;;;;;4974821;28;20879;-91
2023/07/29 11:01:33;;;;;;;4.50;3.97;;;25.50;71.40;;;;;;4964228;28;20463;-88
2023/07/29 11:04:26;;;;;;;6.50;3.70;;;25.60;71.00;;;;;;4953411;28;20533;-84
2023/07/29 11:07:27;;;;;;;8.83;3.77;;;25.60;70.60;;;;;;4963351;28;20481;-84
2023/07/29 11:10:02;;;;;;;8.17;4.03;;;25.60;70.70;;;;;;4971304;28;20454;-84
2023/07/29 11:12:47;;;;;;;3.70;3.40;;;25.60;70.80;;;;;;4971732;28;20467;-84
2023/07/29 11:15:21;;;;;;;5.67;3.17;;;25.70;70.90;;;;;;4971402;28;20457;-84
2023/07/29 11:17:51;;;;;;;4.33;3.20;;;25.70;71.00;;;;;;4968483;28;20998;-87
2023/07/29 11:20:21;;;;;;;4.53;3.17;;;25.70;71.00;;;;;;4973701;28;20463;-89
2023/07/29 11:22:51;;;;;;;5.03;3.00;;;25.70;70.60;;;;;;4967597;28;20473;-87
2023/07/29 11:25:20;;;;;;;6.60;2.90;;;25.70;70.80;;;;;;4970222;28;20497;-88
2023/07/29 11:27:49;;;;;;;5.87;4.77;;;25.70;70.70;;;;;;4971068;28;20546;-88
2023/07/29 11:30:17;;;;;;;71.53;40.80;;;25.80;70.90;;;;;;4968987;28;20470;-87
2023/07/29 11:32:47;;;;;;;23.20;13.57;;;25.80;70.90;;;;;;4973494;28;20958;-89
2023/07/29 11:35:17;;;;;;;14.70;9.63;;;25.80;70.90;;;;;;4954139;28;20457;-86
2023/07/29 11:37:46;;;;;;;14.27;7.87;;;25.80;70.70;;;;;;4966649;28;20501;-87
2023/07/29 11:40:17;;;;;;;10.80;6.70;;;25.80;70.70;;;;;;4975012;28;20576;-87
2023/07/29 11:42:46;;;;;;;7.30;5.33;;;25.80;70.80;;;;;;4959056;28;20997;-85
2023/07/29 11:45:15;;;;;;;6.17;5.47;;;25.90;70.20;;;;;;4973279;28;20463;-86
2023/07/29 11:47:45;;;;;;;9.20;5.80;;;25.90;70.10;;;;;;4968725;28;20540;-85
2023/07/29 11:50:15;;;;;;;11.17;5.70;;;25.90;69.90;;;;;;4975549;28;20524;-88
2023/07/29 11:52:45;;;;;;;6.27;5.47;;;26.00;69.80;;;;;;4955380;28;20833;-86
2023/07/29 11:55:14;;;;;;;7.00;4.77;;;26.00;69.80;;;;;;4976973;28;20528;-90
2023/07/29 11:57:45;;;;;;;40.30;21.43;;;26.10;69.70;;;;;;4972513;28;20973;-87
2023/07/29 12:00:14;;;;;;;14.93;9.70;;;26.10;69.60;;;;;;4971213;28;20488;-88
2023/07/29 12:02:47;;;;;;;12.20;8.00;;;26.10;69.40;;;;;;4971036;28;20475;-87
2023/07/29 12:05:16;;;;;;;9.77;6.87;;;26.20;69.50;;;;;;4970168;28;20532;-87
2023/07/29 12:07:45;;;;;;;9.60;5.37;;;26.20;69.40;;;;;;4977138;28;20539;-89
2023/07/29 12:10:15;;;;;;;9.43;5.20;;;26.30;69.20;;;;;;4972294;28;20468;-87
2023/07/29 12:12:49;;;;;;;10.50;6.40;;;26.50;68.80;;;;;;4974290;28;20553;-88
2023/07/29 12:15:28;;;;;;;9.83;5.70;;;26.60;68.40;;;;;;4952590;28;20798;-89
2023/07/29 12:17:57;;;;;;;7.80;4.37;;;26.70;68.00;;;;;;4964067;28;21242;-88
2023/07/29 12:20:26;;;;;;;5.37;3.77;;;26.60;68.10;;;;;;4950404;28;21094;-86
2023/07/29 12:22:56;;;;;;;5.97;4.27;;;26.60;68.20;;;;;;4950645;28;20467;-86
2023/07/29 12:25:25;;;;;;;6.17;4.40;;;26.60;68.30;;;;;;4954495;28;20477;-88
2023/07/29 12:27:54;;;;;;;53.57;28.23;;;26.50;68.20;;;;;;4952430;28;20498;-86
2023/07/29 12:30:24;;;;;;;42.80;21.10;;;26.50;68.40;;;;;;4954597;28;20497;-85
2023/07/29 12:32:52;;;;;;;32.63;15.70;;;26.50;68.30;;;;;;4955090;28;20461;-87
2023/07/29 12:35:21;;;;;;;18.07;11.43;;;26.60;68.10;;;;;;4950911;28;20476;-87
2023/07/29 12:37:59;;;;;;;28.73;11.63;;;26.70;67.60;;;;;;4951103;28;20487;-84
2023/07/29 12:40:28;;;;;;;18.93;10.33;;;26.90;67.40;;;;;;4951942;28;20970;-85
2023/07/29 12:42:58;;;;;;;20.87;10.40;;;27.00;67.10;;;;;;4950748;28;21003;-85
2023/07/29 12:45:28;;;;;;;21.63;10.23;;;27.00;66.80;;;;;;4957083;28;20466;-85
2023/07/29 12:47:57;;;;;;;14.37;7.60;;;27.00;66.70;;;;;;4951622;28;20474;-84
2023/07/29 12:50:25;;;;;;;14.60;8.30;;;27.00;66.70;;;;;;4957314;28;21053;-86
2023/07/29 12:52:54;;;;;;;10.87;6.20;;;26.90;66.90;;;;;;4951321;28;20463;-85
2023/07/29 12:55:22;;;;;;;8.33;5.77;;;26.90;67.20;;;;;;4954012;28;20545;-84
2023/07/29 12:57:51;;;;;;;9.70;7.17;;;27.00;67.10;;;;;;4948184;28;20552;-84
2023/07/29 13:00:21;;;;;;;7.87;5.53;;;27.00;66.80;;;;;;4952214;28;20479;-83
2023/07/29 13:02:49;;;;;;;8.67;4.87;;;27.00;66.60;;;;;;4944034;28;20476;-85
2023/07/29 13:05:18;;;;;;;7.17;5.00;;;27.00;66.80;;;;;;4949242;28;20458;-84
2023/07/29 13:07:46;;;;;;;11.37;5.17;;;26.90;66.70;;;;;;4948374;28;20467;-84
2023/07/29 13:10:14;;;;;;;9.57;5.27;;;26.90;66.80;;;;;;4951682;28;20476;-90